Time;durP1;ratioP1;P1;durP2;ratioP2;P2;SDS_P1;SDS_P2;PMS_P1;PMS_P2;Temp;Humidity;BMP_temperature;BMP_pressure;BME280_temperature;BME280_humidity;BME280_pressure;Samples;Min_cycle;Max_cycle;Signal;HPM_P1;HPM_P2
2022/10/07 03:59:32;;;;;;;16.10;9.60;;;;;;;12.83;85.14;101844.38;5605654;31;79053;-54
2022/10/07 04:02:35;;;;;;;12.85;9.75;;;;;;;12.83;85.14;101844.38;5584044;32;33335;-55
2022/10/07 04:05:37;;;;;;;14.15;9.65;;;;;;;12.39;86.31;101844.59;5583899;32;33636;-55
2022/10/07 04:08:40;;;;;;;13.60;9.13;;;;;;;12.28;86.52;101837.47;5583937;31;33485;-55
2022/10/07 04:11:42;;;;;;;13.10;10.00;;;;;;;12.37;86.05;101842.12;5583921;31;34370;-56
2022/10/07 04:14:45;;;;;;;14.52;9.40;;;;;;;12.29;86.30;101834.56;5584055;31;33250;-55
2022/10/07 04:17:48;;;;;;;14.73;9.40;;;;;;;12.23;86.35;101841.75;5583859;31;33659;-55
2022/10/07 04:20:51;;;;;;;11.45;9.27;;;;;;;12.28;86.16;101843.66;5583748;31;34257;-55
2022/10/07 04:23:54;;;;;;;23.17;9.48;;;;;;;12.22;86.15;101836.66;5583634;31;33231;-56
2022/10/07 04:26:57;;;;;;;11.88;9.60;;;;;;;12.27;85.85;101827.81;5582573;32;33468;-55
2022/10/07 04:29:59;;;;;;;11.80;9.35;;;;;;;12.23;86.23;101828.31;5564020;32;33577;-55
2022/10/07 04:33:01;;;;;;;17.17;9.27;;;;;;;12.30;85.60;101833.47;5564068;32;33594;-55
2022/10/07 04:36:07;;;;;;;15.68;9.35;;;;;;;12.29;86.03;101831.88;5563997;32;34366;-55
2022/10/07 04:39:10;;;;;;;13.70;9.77;;;;;;;12.38;84.69;101832.19;5564190;32;34102;-55
2022/10/07 04:45:52;;;;;;;13.93;9.75;;;;;;;12.21;85.35;101843.87;5546058;32;33661;-55
2022/10/07 04:48:55;;;;;;;12.20;9.02;;;;;;;12.14;85.65;101842.47;5579869;31;34292;-55
2022/10/07 04:51:57;;;;;;;12.05;9.18;;;;;;;12.12;85.76;101849.97;5582679;31;34189;-55
2022/10/07 04:55:02;;;;;;;12.10;8.98;;;;;;;12.34;84.40;101847.22;5568111;32;35960;-56
2022/10/07 04:58:05;;;;;;;12.73;9.32;;;;;;;12.17;84.97;101845.47;5582800;31;34177;-55
2022/10/07 05:01:08;;;;;;;17.33;9.68;;;;;;;12.16;85.16;101843.03;5581056;31;34218;-55
2022/10/07 05:04:11;;;;;;;12.30;9.43;;;;;;;12.22;85.12;101852.78;5580537;31;33858;-55
2022/10/07 05:07:17;;;;;;;17.90;10.00;;;;;;;12.33;84.80;101851.78;5580780;31;33783;-55
2022/10/07 05:10:20;;;;;;;14.98;9.35;;;;;;;12.23;84.66;101851.69;5569536;31;34182;-56
2022/10/07 05:13:25;;;;;;;12.35;9.15;;;;;;;12.33;84.80;101854.47;5567323;31;33278;-56
2022/10/07 05:16:31;;;;;;;14.82;9.82;;;;;;;12.33;84.33;101859.06;5567460;32;34288;-56
2022/10/07 05:19:34;;;;;;;14.27;9.93;;;;;;;12.22;85.01;101860.84;5557953;32;34442;-56
2022/10/07 05:22:38;;;;;;;16.45;10.10;;;;;;;12.09;85.46;101858.56;5550841;32;33688;-56
2022/10/07 05:25:42;;;;;;;27.25;10.85;;;;;;;12.13;85.35;101870.44;5567808;31;33402;-56
2022/10/07 05:28:47;;;;;;;21.70;10.52;;;;;;;12.12;85.89;101868.78;5569256;31;34215;-55
2022/10/07 05:31:50;;;;;;;17.85;10.95;;;;;;;12.17;85.40;101868.84;5567272;32;34247;-55
2022/10/07 05:34:52;;;;;;;13.82;10.77;;;;;;;12.09;86.34;101863.94;5567625;32;33670;-55
2022/10/07 05:37:55;;;;;;;42.88;10.95;;;;;;;12.15;86.30;101858.38;5565178;31;33337;-56
2022/10/07 05:41:00;;;;;;;28.48;11.52;;;;;;;12.25;86.18;101864.88;5563719;32;33774;-55
2022/10/07 05:44:03;;;;;;;20.08;10.27;;;;;;;12.26;86.62;101861.13;5564614;31;33073;-55
2022/10/07 05:47:05;;;;;;;22.02;11.35;;;;;;;12.25;86.62;101862.19;5563000;32;33737;-55
2022/10/07 05:50:08;;;;;;;31.55;13.25;;;;;;;12.26;87.33;101864.63;5565689;31;34772;-56
2022/10/07 05:53:14;;;;;;;82.85;16.52;;;;;;;12.37;87.41;101863.66;5559893;32;34357;-54
2022/10/07 05:56:21;;;;;;;55.58;16.95;;;;;;;12.46;87.92;101858.62;5567506;31;33351;-55
2022/10/07 05:59:24;;;;;;;21.95;12.07;;;;;;;12.48;87.78;101867.22;5567519;31;33369;-55
2022/10/07 06:02:28;;;;;;;31.80;13.10;;;;;;;12.72;86.77;101866.91;5567618;32;33536;-55
2022/10/07 06:05:31;;;;;;;21.67;11.60;;;;;;;12.72;87.82;101866.91;5568342;32;33593;-55
2022/10/07 06:08:34;;;;;;;21.65;12.10;;;;;;;12.76;87.81;101868.00;5568471;31;33320;-55
2022/10/07 06:14:58;;;;;;;15.40;12.18;;;;;;;12.87;88.32;101867.78;5557445;32;33274;-55
2022/10/07 06:18:00;;;;;;;23.30;12.15;;;;;;;13.02;88.16;101864.41;5565070;32;33256;-55
2022/10/07 06:21:04;;;;;;;18.98;12.93;;;;;;;13.09;88.25;101872.25;5566356;31;33402;-56
2022/10/07 06:24:06;;;;;;;19.73;12.75;;;;;;;13.20;88.35;101871.22;5563629;32;33178;-56
2022/10/07 06:27:08;;;;;;;17.15;13.15;;;;;;;13.21;89.06;101872.03;5567236;32;33285;-56
2022/10/07 06:30:12;;;;;;;18.67;13.23;;;;;;;13.27;90.12;101881.81;5565838;32;33830;-55
2022/10/07 06:33:15;;;;;;;22.60;13.62;;;;;;;13.38;89.12;101880.78;5567683;32;33889;-56
2022/10/07 06:36:19;;;;;;;27.40;13.65;;;;;;;13.62;88.08;101876.59;5566767;31;34351;-55
2022/10/07 06:39:21;;;;;;;18.58;13.15;;;;;;;13.73;88.09;101869.34;5567794;31;34173;-55
2022/10/07 06:42:24;;;;;;;25.48;15.77;;;;;;;13.80;87.16;101859.09;5567030;31;33134;-55
2022/10/07 06:45:31;;;;;;;22.52;15.40;;;;;;;13.92;85.83;101866.97;5567151;32;33370;-55
2022/10/07 06:48:35;;;;;;;38.65;15.23;;;;;;;13.87;86.35;101869.62;5549298;32;31790;-55
2022/10/07 06:51:37;;;;;;;24.55;14.85;;;;;;;13.94;87.20;101870.22;5563664;32;32910;-55
2022/10/07 06:54:39;;;;;;;23.80;15.20;;;;;;;13.98;86.08;101867.81;5566044;32;33590;-56
2022/10/07 06:57:42;;;;;;;25.75;14.50;;;;;;;14.08;86.42;101863.22;5565623;32;34264;-56
2022/10/07 07:00:48;;;;;;;;;;;;;;;14.17;86.41;101871.63;5567589;31;33208;-57
2022/10/07 07:03:52;;;;;;;25.95;15.05;;;;;;;14.31;86.30;101866.50;5559264;31;33319;-56
2022/10/07 07:06:55;;;;;;;16.20;13.82;;;;;;;14.34;86.84;101864.06;5567571;32;33451;-55
2022/10/07 07:09:58;;;;;;;21.92;14.68;;;;;;;14.41;87.20;101868.41;5556764;32;33737;-55
2022/10/07 07:13:01;;;;;;;22.83;15.10;;;;;;;14.57;86.52;101865.44;5568065;32;34446;-56
2022/10/07 07:16:08;;;;;;;21.55;14.93;;;;;;;14.72;86.92;101870.00;5567621;32;33282;-56
2022/10/07 07:19:12;;;;;;;19.05;14.55;;;;;;;14.83;85.17;101867.31;5567729;31;33412;-55
2022/10/07 07:22:15;;;;;;;20.50;14.27;;;;;;;14.95;83.59;101863.25;5565495;31;33276;-55
2022/10/07 07:25:19;;;;;;;16.20;13.93;;;;;;;15.14;83.67;101859.97;5568080;32;33846;-56
2022/10/07 07:28:21;;;;;;;19.55;13.77;;;;;;;15.31;82.28;101846.94;5567313;32;33914;-56
2022/10/07 07:31:26;;;;;;;16.95;12.70;;;;;;;15.43;80.71;101860.13;5567143;31;31749;-56
2022/10/07 07:34:29;;;;;;;19.00;13.68;;;;;;;15.48;79.98;101854.69;5567424;31;33229;-55
2022/10/07 07:37:32;;;;;;;16.52;12.85;;;;;;;15.57;80.75;101858.44;5568364;31;33614;-55
2022/10/07 07:40:38;;;;;;;19.25;12.70;;;;;;;15.61;79.21;101850.59;5568108;32;33416;-55
2022/10/07 07:43:41;;;;;;;21.62;12.80;;;;;;;15.66;77.26;101851.41;5556826;32;33058;-55
2022/10/07 07:46:48;;;;;;;15.88;12.95;;;;;;;15.64;77.42;101844.63;5549014;32;33644;-55
2022/10/07 07:49:50;;;;;;;;;;;;;;;15.66;77.65;101842.44;5561118;32;33535;-55
2022/10/07 07:52:53;;;;;;;16.85;13.32;;;;;;;15.81;76.40;101844.28;5566228;32;33443;-56
2022/10/07 07:56:01;;;;;;;17.65;12.25;;;;;;;15.87;76.21;101849.41;5567166;32;32022;-56
2022/10/07 07:59:05;;;;;;;16.35;12.85;;;;;;;15.97;75.01;101845.81;5563975;32;34221;-56
2022/10/07 08:02:10;;;;;;;14.57;12.95;;;;;;;15.96;77.62;101842.31;5560745;32;33794;-55
2022/10/07 08:05:13;;;;;;;15.32;12.88;;;;;;;16.06;75.12;101846.00;5565072;32;33550;-55
2022/10/07 08:08:15;;;;;;;15.68;14.07;;;;;;;16.10;75.36;101838.97;5553807;32;33554;-55
2022/10/07 08:11:19;;;;;;;17.60;12.98;;;;;;;16.20;74.39;101831.59;5550666;32;33255;-56
2022/10/07 08:14:23;;;;;;;18.37;12.27;;;;;;;16.29;73.75;101826.37;5565478;31;33507;-55
2022/10/07 08:17:26;;;;;;;15.57;13.07;;;;;;;16.44;73.13;101831.66;5563983;32;33206;-55
2022/10/07 08:20:30;;;;;;;18.70;12.05;;;;;;;16.46;73.50;101831.38;5565440;32;33555;-56
2022/10/07 08:23:42;;;;;;;16.62;11.48;;;;;;;16.56;71.94;101825.06;5566744;32;33227;-56
2022/10/07 08:26:46;;;;;;;16.95;11.10;;;;;;;16.56;72.96;101823.16;5563393;32;33857;-56
2022/10/07 08:29:49;;;;;;;15.75;10.73;;;;;;;16.67;73.11;101827.38;5560999;32;33931;-55
2022/10/07 08:32:51;;;;;;;22.55;10.98;;;;;;;16.89;71.15;101829.63;5566522;32;34221;-55
2022/10/07 08:35:58;;;;;;;16.52;11.07;;;;;;;16.89;73.31;101828.84;5561104;32;33703;-55
2022/10/07 08:39:03;;;;;;;29.77;11.40;;;;;;;16.95;71.44;101824.94;5563358;32;33871;-55
2022/10/07 08:42:15;;;;;;;16.45;11.45;;;;;;;16.95;72.71;101822.25;5564888;32;34435;-56
2022/10/07 08:45:31;;;;;;;16.80;10.82;;;;;;;17.06;71.92;101818.34;5563257;32;32054;-56
2022/10/07 08:48:37;;;;;;;13.52;11.48;;;;;;;17.07;72.85;101813.72;5564288;32;33241;-55
2022/10/07 08:51:45;;;;;;;14.73;11.77;;;;;;;17.10;71.86;101808.53;5569223;32;33730;-55
2022/10/07 08:54:48;;;;;;;15.07;11.57;;;;;;;17.12;71.39;101802.84;5564570;32;33695;-56
2022/10/07 08:58:35;;;;;;;17.02;11.88;;;;;;;17.14;72.15;101803.34;5568049;32;34175;-55
2022/10/07 09:01:58;;;;;;;16.67;12.77;;;;;;;17.18;71.83;101806.28;5554227;31;33610;-55
2022/10/07 09:05:14;;;;;;;60.78;16.58;;;;;;;17.21;71.15;101805.69;5562060;32;33815;-56
2022/10/07 09:08:23;;;;;;;20.33;12.20;;;;;;;17.27;71.52;101797.22;5565722;32;33602;-55
2022/10/07 09:11:27;;;;;;;21.40;13.32;;;;;;;17.36;71.06;101797.38;5564272;32;33861;-56
2022/10/07 09:14:37;;;;;;;17.83;11.77;;;;;;;17.36;71.67;101789.25;5568557;32;33764;-55
2022/10/07 09:17:48;;;;;;;15.60;11.93;;;;;;;17.41;72.10;101783.75;5563178;32;34254;-56
2022/10/07 09:20:53;;;;;;;20.60;11.98;;;;;;;17.46;71.73;101778.25;5561839;32;33302;-55
2022/10/07 09:24:13;;;;;;;16.15;11.38;;;;;;;17.48;71.13;101776.06;5567239;32;33746;-56
2022/10/07 09:27:19;;;;;;;17.58;11.95;;;;;;;17.47;70.75;101779.06;5565302;32;33607;-55
2022/10/07 09:30:23;;;;;;;21.35;11.27;;;;;;;17.49;70.48;101771.47;5564644;32;33650;-56
2022/10/07 09:33:28;;;;;;;19.48;10.88;;;;;;;17.56;73.37;101772.69;5565383;32;33743;-56
2022/10/07 09:36:30;;;;;;;13.82;10.68;;;;;;;17.61;72.36;101767.22;5566135;32;33379;-56
2022/10/07 09:39:33;;;;;;;15.82;10.77;;;;;;;17.77;72.05;101769.72;5566169;32;34293;-55
2022/10/07 09:42:42;;;;;;;21.77;10.75;;;;;;;17.79;71.61;101757.47;5566465;32;33080;-55
2022/10/07 09:45:45;;;;;;;19.17;10.00;;;;;;;17.81;71.41;101747.16;5565911;32;33634;-55
2022/10/07 09:48:53;;;;;;;13.18;9.82;;;;;;;17.88;71.31;101741.34;5563836;32;34338;-56
2022/10/07 09:52:14;;;;;;;11.90;9.20;;;;;;;17.99;70.46;101740.06;5568117;32;33738;-56
2022/10/07 09:55:39;;;;;;;18.65;9.30;;;;;;;18.01;70.30;101737.03;5565434;32;33816;-57
2022/10/07 09:58:41;;;;;;;21.65;9.98;;;;;;;18.03;70.91;101734.84;5567106;32;34374;-56
2022/10/07 10:01:55;;;;;;;15.13;8.43;;;;;;;18.09;70.32;101730.94;5568244;32;34459;-56
2022/10/07 10:04:58;;;;;;;15.88;8.93;;;;;;;18.10;70.75;101716.25;5567214;32;33849;-55
2022/10/07 10:08:04;;;;;;;16.90;9.32;;;;;;;18.14;70.99;101722.69;5567176;32;33640;-56
2022/10/07 10:11:19;;;;;;;14.75;8.73;;;;;;;18.21;70.03;101717.72;5567414;32;33272;-56
2022/10/07 10:14:40;;;;;;;10.05;8.45;;;;;;;18.19;70.94;101711.75;5567457;32;33411;-56
2022/10/07 10:17:42;;;;;;;20.30;9.13;;;;;;;18.21;69.90;101706.84;5565496;32;33692;-55
2022/10/07 10:20:45;;;;;;;16.48;8.63;;;;;;;18.27;70.65;101708.34;5566222;32;34294;-56
2022/10/07 10:24:05;;;;;;;12.90;8.57;;;;;;;18.36;70.15;101705.75;5566017;32;33166;-56
2022/10/07 10:27:29;;;;;;;19.17;8.55;;;;;;;18.47;69.29;101707.16;5565052;32;33659;-56
2022/10/07 10:30:40;;;;;;;15.77;7.30;;;;;;;18.46;69.56;101694.69;5558060;32;33631;-55
2022/10/07 10:33:49;;;;;;;10.35;6.32;;;;;;;18.58;69.84;101696.94;5566478;32;34368;-56
2022/10/07 10:37:00;;;;;;;11.73;6.28;;;;;;;18.61;68.86;101684.63;5559406;32;33603;-56
2022/10/07 10:40:24;;;;;;;13.80;6.90;;;;;;;18.62;69.92;101681.63;5563153;32;34384;-55
2022/10/07 10:43:57;;;;;;;7.07;5.95;;;;;;;18.68;69.64;101675.00;5568404;32;33598;-56
2022/10/07 10:47:11;;;;;;;11.30;6.53;;;;;;;18.82;67.78;101677.72;5558956;32;33721;-56
2022/10/07 10:50:47;;;;;;;8.02;5.18;;;;;;;18.78;67.21;101663.13;5566624;32;34360;-56
2022/10/07 10:54:01;;;;;;;10.02;5.90;;;;;;;18.78;67.97;101658.50;5564446;32;33323;-56
2022/10/07 10:57:34;;;;;;;10.30;5.70;;;;;;;18.89;68.67;101655.56;5563826;32;34406;-56
2022/10/07 11:00:51;;;;;;;12.10;5.82;;;;;;;18.93;67.73;101653.84;5564474;32;33784;-56
2022/10/07 11:04:37;;;;;;;9.07;5.45;;;;;;;18.99;67.00;101647.19;5562239;32;33731;-56
2022/10/07 11:08:00;;;;;;;7.87;4.82;;;;;;;19.01;65.50;101634.09;5567287;32;34462;-56
2022/10/07 11:11:15;;;;;;;7.60;4.97;;;;;;;18.94;66.39;101630.97;5567861;32;33699;-56
2022/10/07 11:14:21;;;;;;;7.22;5.28;;;;;;;19.02;67.19;101619.41;5558973;32;34297;-56
2022/10/07 11:17:29;;;;;;;13.13;5.20;;;;;;;19.01;66.01;101615.09;5561105;32;33726;-55
2022/10/07 11:20:35;;;;;;;9.68;4.90;;;;;;;19.09;65.54;101611.62;5554778;32;33635;-56
2022/10/07 11:24:00;;;;;;;7.45;5.15;;;;;;;19.02;64.51;101601.19;5565352;32;33750;-56
2022/10/07 11:27:21;;;;;;;9.90;5.22;;;;;;;19.09;65.47;101600.75;5556367;32;33722;-56
2022/10/07 11:30:27;;;;;;;7.40;5.25;;;;;;;19.25;64.66;101595.75;5547039;32;34382;-56
2022/10/07 11:33:45;;;;;;;9.73;5.30;;;;;;;19.19;64.42;101586.91;5560399;32;33768;-56
2022/10/07 11:37:02;;;;;;;8.05;5.07;;;;;;;19.12;65.17;101578.38;5550318;32;33392;-56
2022/10/07 11:40:06;;;;;;;5.75;4.87;;;;;;;19.16;64.04;101576.66;5567381;32;33806;-56
2022/10/07 11:43:29;;;;;;;7.22;4.82;;;;;;;19.29;63.66;101575.00;5568075;31;31833;-56
2022/10/07 11:46:49;;;;;;;9.45;5.07;;;;;;;19.17;64.02;101566.59;5566541;32;34336;-56
2022/10/07 11:50:04;;;;;;;9.32;5.18;;;;;;;19.18;63.76;101569.00;5566080;32;33649;-57
2022/10/07 11:53:27;;;;;;;9.88;5.32;;;;;;;19.16;62.74;101565.78;5566914;32;33755;-56
2022/10/07 11:56:43;;;;;;;6.03;5.12;;;;;;;19.16;63.60;101551.41;5564838;32;32354;-56
2022/10/07 12:00:20;;;;;;;8.45;5.20;;;;;;;19.18;64.54;101549.19;5566070;32;33289;-55
2022/10/07 12:03:23;;;;;;;15.85;5.68;;;;;;;19.18;64.94;101541.81;5567233;32;33726;-56
2022/10/07 12:06:26;;;;;;;13.75;5.55;;;;;;;19.25;66.28;101535.94;5567314;32;34354;-56
2022/10/07 12:09:54;;;;;;;13.80;5.37;;;;;;;19.28;65.00;101538.06;5561386;32;33478;-56
2022/10/07 12:13:07;;;;;;;8.07;5.20;;;;;;;19.32;65.33;101528.16;5566217;32;33745;-56
2022/10/07 12:16:30;;;;;;;10.98;5.25;;;;;;;19.37;65.57;101519.88;5563729;32;33695;-56
2022/10/07 12:19:33;;;;;;;8.20;5.40;;;;;;;19.31;64.08;101515.69;5564117;32;34384;-56
2022/10/07 12:22:35;;;;;;;9.55;4.93;;;;;;;19.36;66.10;101510.09;5565646;32;33648;-56
2022/10/07 12:25:44;;;;;;;7.53;4.80;;;;;;;19.36;65.04;101509.28;5569539;32;33645;-56
2022/10/07 12:28:47;;;;;;;7.20;5.03;;;;;;;19.37;64.72;101506.28;5566279;31;34374;-56
2022/10/07 12:31:49;;;;;;;13.00;5.03;;;;;;;19.46;63.74;101490.78;5564819;32;34997;-55
2022/10/07 12:34:52;;;;;;;8.18;4.95;;;;;;;19.45;64.14;101502.00;5566771;32;33204;-56
2022/10/07 12:38:13;;;;;;;8.15;5.60;;;;;;;19.47;65.75;101497.06;5566540;32;33656;-56
2022/10/07 12:41:23;;;;;;;10.23;5.45;;;;;;;19.49;63.53;101490.16;5557586;32;34398;-55
2022/10/07 12:44:37;;;;;;;11.60;5.95;;;;;;;19.50;63.83;101488.25;5567158;32;34413;-56
2022/10/07 12:47:41;;;;;;;9.43;5.45;;;;;;;19.55;62.44;101488.13;5567758;32;33784;-56
2022/10/07 12:50:46;;;;;;;10.25;5.50;;;;;;;19.57;62.06;101480.47;5569354;32;33782;-56
2022/10/07 12:53:50;;;;;;;9.57;5.03;;;;;;;19.52;64.32;101477.06;5570486;32;33837;-56
2022/10/07 12:56:53;;;;;;;10.57;5.45;;;;;;;19.52;64.15;101475.16;5569458;32;34326;-55
2022/10/07 13:00:11;;;;;;;6.37;4.82;;;;;;;19.55;63.79;101476.44;5570428;32;33678;-56
2022/10/07 13:03:35;;;;;;;12.23;5.45;;;;;;;19.52;63.67;101464.25;5568098;31;33425;-56
2022/10/07 13:06:59;;;;;;;7.32;5.35;;;;;;;19.54;65.41;101462.03;5568519;32;33762;-56
2022/10/07 13:10:36;;;;;;;9.25;5.20;;;;;;;19.53;63.74;101460.41;5558939;32;33760;-56
2022/10/07 13:13:46;;;;;;;6.43;4.97;;;;;;;19.60;63.23;101454.53;5568917;32;33759;-55
2022/10/07 13:17:14;;;;;;;11.05;5.18;;;;;;;19.61;64.87;101453.44;5567946;32;34383;-55
2022/10/07 13:20:51;;;;;;;11.23;5.05;;;;;;;19.59;66.68;101448.28;5569494;32;33851;-56
2022/10/07 13:23:54;;;;;;;14.77;4.87;;;;;;;19.61;63.90;101437.09;5566636;32;33706;-56
2022/10/07 13:26:58;;;;;;;13.88;5.45;;;;;;;19.64;65.02;101431.88;5567584;32;34373;-56
2022/10/07 13:30:02;;;;;;;24.52;5.82;;;;;;;19.66;63.87;101432.34;5569178;32;33288;-56
2022/10/07 13:33:18;;;;;;;20.07;5.97;;;;;;;19.73;63.30;101429.16;5567475;32;33667;-56
2022/10/07 13:36:28;;;;;;;17.47;5.27;;;;;;;19.76;63.97;101420.34;5548476;32;33696;-56
2022/10/07 13:39:31;;;;;;;10.93;4.90;;;;;;;19.75;64.76;101416.03;5549473;32;33292;-56
2022/10/07 13:42:34;;;;;;;22.77;6.45;;;;;;;19.78;63.69;101418.12;5552056;32;34473;-56
2022/10/07 13:45:43;;;;;;;6.40;4.35;;;;;;;19.83;64.55;101417.16;5568971;32;33779;-56
2022/10/07 13:48:47;;;;;;;16.92;5.25;;;;;;;19.80;62.79;101415.91;5569285;32;34056;-56
2022/10/07 13:51:52;;;;;;;8.68;4.70;;;;;;;19.88;62.76;101417.84;5569281;32;33934;-56
2022/10/07 13:54:57;;;;;;;17.65;5.47;;;;;;;19.87;64.01;101408.06;5568540;32;33639;-56
2022/10/07 13:58:04;;;;;;;8.48;4.68;;;;;;;19.94;65.15;101410.31;5569001;32;33713;-55
2022/10/07 14:01:06;;;;;;;13.25;4.57;;;;;;;19.87;64.09;101410.00;5569251;32;33989;-56
2022/10/07 14:04:22;;;;;;;19.08;5.07;;;;;;;19.83;63.75;101406.28;5568500;32;33751;-56
2022/10/07 14:07:27;;;;;;;15.10;4.97;;;;;;;19.83;63.40;101395.41;5568858;32;33643;-56
2022/10/07 14:10:30;;;;;;;29.13;5.23;;;;;;;19.80;64.04;101393.31;5569274;32;33684;-56
2022/10/07 14:13:34;;;;;;;9.75;5.00;;;;;;;19.77;64.02;101383.91;5567455;32;34308;-56
2022/10/07 14:16:36;;;;;;;9.18;4.50;;;;;;;19.78;63.54;101380.03;5568871;32;33722;-56
2022/10/07 14:19:39;;;;;;;19.12;4.85;;;;;;;19.77;62.90;101378.44;5569076;32;34410;-56
2022/10/07 14:22:45;;;;;;;20.33;5.00;;;;;;;19.75;63.81;101374.44;5567666;32;33648;-56
2022/10/07 14:25:47;;;;;;;;;;;;;;;19.74;63.61;101378.28;5569676;32;34225;-55
2022/10/07 14:28:49;;;;;;;11.77;4.82;;;;;;;19.70;64.54;101378.09;5569149;31;34693;-55
2022/10/07 14:35:32;;;;;;;5.85;4.30;;;;;;;19.71;62.94;101371.56;5569010;32;33739;-56
2022/10/07 14:38:35;;;;;;;11.35;4.75;;;;;;;19.69;61.75;101371.84;5568925;32;34167;-56
2022/10/07 14:41:37;;;;;;;11.93;5.37;;;;;;;19.71;62.48;101368.84;5567969;32;33697;-56
2022/10/07 14:44:42;;;;;;;7.25;4.62;;;;;;;19.71;62.98;101363.41;5567562;32;33644;-56
2022/10/07 14:47:45;;;;;;;13.98;5.10;;;;;;;19.73;63.51;101365.78;5568896;32;33674;-56
2022/10/07 14:50:48;;;;;;;9.00;4.93;;;;;;;19.65;66.48;101368.19;5569097;32;33626;-55
2022/10/07 14:53:54;;;;;;;10.98;4.87;;;;;;;19.59;64.75;101366.69;5568601;32;33630;-56
2022/10/07 14:56:56;;;;;;;12.10;5.07;;;;;;;19.61;63.63;101359.03;5568855;32;33690;-55
2022/10/07 14:59:59;;;;;;;9.30;5.65;;;;;;;19.58;63.98;101354.22;5568966;32;33302;-56
2022/10/07 15:03:01;;;;;;;12.82;4.95;;;;;;;19.55;63.38;101357.56;5569220;32;33755;-55
2022/10/07 15:06:05;;;;;;;9.40;4.95;;;;;;;19.57;65.44;101351.81;5568051;32;33809;-55
2022/10/07 15:09:10;;;;;;;7.82;4.90;;;;;;;19.47;63.56;101347.50;5569018;32;33684;-56
2022/10/07 15:12:14;;;;;;;8.65;4.93;;;;;;;19.43;64.17;101347.28;5568821;32;34483;-56
2022/10/07 15:15:17;;;;;;;7.20;4.72;;;;;;;19.39;64.18;101348.25;5568293;32;33887;-56
2022/10/07 15:18:20;;;;;;;11.07;5.35;;;;;;;19.36;63.93;101346.16;5567740;32;33488;-55
